sensor_id;sensor_type;location;lat;lon;timestamp;P1;durP1;ratioP1;P2;durP2;ratioP2
21215;SDS011;10765;50.954;5.322;2022-07-06T00:00:55;4.80;;;3.60;;
21215;SDS011;10765;50.954;5.322;2022-07-06T00:03:22;3.70;;;3.40;;
21215;SDS011;10765;50.954;5.322;2022-07-06T00:05:49;6.83;;;3.73;;
21215;SDS011;10765;50.954;5.322;2022-07-06T00:08:18;3.63;;;3.33;;
21215;SDS011;10765;50.954;5.322;2022-07-06T00:10:44;3.97;;;3.30;;
21215;SDS011;10765;50.954;5.322;2022-07-06T00:13:14;3.70;;;3.33;;
21215;SDS011;10765;50.954;5.322;2022-07-06T00:15:41;3.63;;;3.10;;
21215;SDS011;10765;50.954;5.322;2022-07-06T00:18:08;4.73;;;3.70;;
21215;SDS011;10765;50.954;5.322;2022-07-06T00:20:35;6.43;;;4.13;;
21215;SDS011;10765;50.954;5.322;2022-07-06T00:23:02;4.77;;;3.87;;
21215;SDS011;10765;50.954;5.322;2022-07-06T00:25:30;3.80;;;3.50;;
21215;SDS011;10765;50.954;5.322;2022-07-06T00:27:57;3.23;;;3.00;;
21215;SDS011;10765;50.954;5.322;2022-07-06T00:30:24;4.53;;;3.30;;
21215;SDS011;10765;50.954;5.322;2022-07-06T00:32:51;4.00;;;3.27;;
21215;SDS011;10765;50.954;5.322;2022-07-06T00:35:18;3.57;;;3.27;;
21215;SDS011;10765;50.954;5.322;2022-07-06T00:37:45;3.70;;;3.40;;
21215;SDS011;10765;50.954;5.322;2022-07-06T00:40:12;4.90;;;3.30;;
21215;SDS011;10765;50.954;5.322;2022-07-06T00:42:41;4.70;;;3.70;;
21215;SDS011;10765;50.954;5.322;2022-07-06T00:45:08;4.10;;;3.70;;
21215;SDS011;10765;50.954;5.322;2022-07-06T00:47:36;5.00;;;3.73;;
21215;SDS011;10765;50.954;5.322;2022-07-06T00:50:04;4.67;;;4.07;;
21215;SDS011;10765;50.954;5.322;2022-07-06T00:52:43;3.87;;;3.57;;
21215;SDS011;10765;50.954;5.322;2022-07-06T00:55:12;4.17;;;3.37;;
21215;SDS011;10765;50.954;5.322;2022-07-06T00:57:42;3.70;;;3.40;;
21215;SDS011;10765;50.954;5.322;2022-07-06T01:00:10;3.63;;;3.30;;
21215;SDS011;10765;50.954;5.322;2022-07-06T01:02:38;6.43;;;4.30;;
21215;SDS011;10765;50.954;5.322;2022-07-06T01:05:05;5.80;;;4.47;;
21215;SDS011;10765;50.954;5.322;2022-07-06T01:07:34;5.67;;;5.03;;
21215;SDS011;10765;50.954;5.322;2022-07-06T01:10:02;6.27;;;5.67;;
21215;SDS011;10765;50.954;5.322;2022-07-06T01:12:30;7.17;;;6.47;;
21215;SDS011;10765;50.954;5.322;2022-07-06T01:14:59;9.03;;;6.93;;
21215;SDS011;10765;50.954;5.322;2022-07-06T01:17:27;6.70;;;6.10;;
21215;SDS011;10765;50.954;5.322;2022-07-06T01:19:55;8.10;;;7.30;;
21215;SDS011;10765;50.954;5.322;2022-07-06T01:22:23;7.50;;;6.80;;
21215;SDS011;10765;50.954;5.322;2022-07-06T01:24:50;7.83;;;7.07;;
21215;SDS011;10765;50.954;5.322;2022-07-06T01:27:17;8.57;;;7.43;;
21215;SDS011;10765;50.954;5.322;2022-07-06T01:29:44;6.73;;;6.13;;
21215;SDS011;10765;50.954;5.322;2022-07-06T01:32:11;7.33;;;6.63;;
21215;SDS011;10765;50.954;5.322;2022-07-06T01:34:38;6.73;;;6.13;;
21215;SDS011;10765;50.954;5.322;2022-07-06T01:37:07;9.27;;;7.63;;
21215;SDS011;10765;50.954;5.322;2022-07-06T01:39:35;6.27;;;5.63;;
21215;SDS011;10765;50.954;5.322;2022-07-06T01:42:02;6.97;;;6.27;;
21215;SDS011;10765;50.954;5.322;2022-07-06T01:44:29;7.50;;;5.60;;
21215;SDS011;10765;50.954;5.322;2022-07-06T01:46:56;8.03;;;6.00;;
21215;SDS011;10765;50.954;5.322;2022-07-06T01:49:23;6.43;;;5.07;;
21215;SDS011;10765;50.954;5.322;2022-07-06T01:51:50;7.50;;;6.80;;
21215;SDS011;10765;50.954;5.322;2022-07-06T01:54:17;10.33;;;7.37;;
21215;SDS011;10765;50.954;5.322;2022-07-06T01:56:45;12.80;;;8.90;;
21215;SDS011;10765;50.954;5.322;2022-07-06T01:59:12;11.03;;;8.63;;
21215;SDS011;10765;50.954;5.322;2022-07-06T02:01:39;9.80;;;8.57;;
21215;SDS011;10765;50.954;5.322;2022-07-06T02:04:06;11.03;;;8.93;;
21215;SDS011;10765;50.954;5.322;2022-07-06T02:06:33;9.87;;;8.20;;
21215;SDS011;10765;50.954;5.322;2022-07-06T02:09:00;8.90;;;7.50;;
21215;SDS011;10765;50.954;5.322;2022-07-06T02:11:27;9.30;;;7.50;;
21215;SDS011;10765;50.954;5.322;2022-07-06T02:13:55;7.47;;;6.23;;
21215;SDS011;10765;50.954;5.322;2022-07-06T02:16:22;9.53;;;7.30;;
21215;SDS011;10765;50.954;5.322;2022-07-06T02:18:49;7.57;;;5.70;;
21215;SDS011;10765;50.954;5.322;2022-07-06T02:21:16;7.00;;;6.30;;
21215;SDS011;10765;50.954;5.322;2022-07-06T02:23:43;7.00;;;6.40;;
21215;SDS011;10765;50.954;5.322;2022-07-06T02:26:11;8.67;;;6.63;;
21215;SDS011;10765;50.954;5.322;2022-07-06T02:28:38;6.70;;;6.03;;
21215;SDS011;10765;50.954;5.322;2022-07-06T02:31:06;7.50;;;6.70;;
21215;SDS011;10765;50.954;5.322;2022-07-06T02:33:34;7.43;;;6.60;;
21215;SDS011;10765;50.954;5.322;2022-07-06T02:36:01;7.50;;;6.80;;
21215;SDS011;10765;50.954;5.322;2022-07-06T02:38:28;7.07;;;6.30;;
21215;SDS011;10765;50.954;5.322;2022-07-06T02:40:55;7.27;;;5.80;;
21215;SDS011;10765;50.954;5.322;2022-07-06T02:43:22;6.27;;;5.77;;
21215;SDS011;10765;50.954;5.322;2022-07-06T02:45:49;5.83;;;4.43;;
21215;SDS011;10765;50.954;5.322;2022-07-06T02:48:17;4.23;;;3.83;;
21215;SDS011;10765;50.954;5.322;2022-07-06T02:50:46;5.90;;;5.30;;
21215;SDS011;10765;50.954;5.322;2022-07-06T02:53:13;6.93;;;5.83;;
21215;SDS011;10765;50.954;5.322;2022-07-06T02:55:40;8.83;;;6.53;;
21215;SDS011;10765;50.954;5.322;2022-07-06T02:58:07;4.73;;;4.33;;
21215;SDS011;10765;50.954;5.322;2022-07-06T03:00:34;5.50;;;4.97;;
21215;SDS011;10765;50.954;5.322;2022-07-06T03:03:01;6.07;;;4.43;;
21215;SDS011;10765;50.954;5.322;2022-07-06T03:05:31;4.03;;;3.70;;
21215;SDS011;10765;50.954;5.322;2022-07-06T03:07:58;5.87;;;4.53;;
21215;SDS011;10765;50.954;5.322;2022-07-06T03:10:25;5.40;;;4.90;;
21215;SDS011;10765;50.954;5.322;2022-07-06T03:12:52;4.67;;;4.27;;
21215;SDS011;10765;50.954;5.322;2022-07-06T03:15:19;4.97;;;4.57;;
21215;SDS011;10765;50.954;5.322;2022-07-06T03:17:46;5.07;;;3.90;;
21215;SDS011;10765;50.954;5.322;2022-07-06T03:20:13;4.10;;;3.33;;
21215;SDS011;10765;50.954;5.322;2022-07-06T03:22:41;4.93;;;3.87;;
21215;SDS011;10765;50.954;5.322;2022-07-06T03:25:08;3.93;;;3.60;;
21215;SDS011;10765;50.954;5.322;2022-07-06T03:27:35;3.27;;;2.27;;
21215;SDS011;10765;50.954;5.322;2022-07-06T03:30:02;4.40;;;4.00;;
21215;SDS011;10765;50.954;5.322;2022-07-06T03:32:30;3.57;;;3.27;;
21215;SDS011;10765;50.954;5.322;2022-07-06T03:34:57;4.40;;;4.00;;
21215;SDS011;10765;50.954;5.322;2022-07-06T03:37:24;3.83;;;3.53;;
21215;SDS011;10765;50.954;5.322;2022-07-06T03:39:52;4.83;;;4.30;;
21215;SDS011;10765;50.954;5.322;2022-07-06T03:42:19;5.57;;;3.57;;
21215;SDS011;10765;50.954;5.322;2022-07-06T03:44:46;4.20;;;3.57;;
21215;SDS011;10765;50.954;5.322;2022-07-06T03:47:13;3.20;;;2.90;;
21215;SDS011;10765;50.954;5.322;2022-07-06T03:49:40;4.13;;;3.70;;
21215;SDS011;10765;50.954;5.322;2022-07-06T03:52:06;5.17;;;4.70;;
21215;SDS011;10765;50.954;5.322;2022-07-06T03:54:33;5.30;;;4.77;;
21215;SDS011;10765;50.954;5.322;2022-07-06T03:57:02;4.30;;;3.93;;
21215;SDS011;10765;50.954;5.322;2022-07-06T03:59:29;7.63;;;4.60;;
21215;SDS011;10765;50.954;5.322;2022-07-06T04:01:56;5.47;;;4.97;;
21215;SDS011;10765;50.954;5.322;2022-07-06T04:04:23;5.63;;;4.77;;
21215;SDS011;10765;50.954;5.322;2022-07-06T04:06:50;5.37;;;4.47;;
21215;SDS011;10765;50.954;5.322;2022-07-06T04:09:18;4.33;;;3.93;;
21215;SDS011;10765;50.954;5.322;2022-07-06T04:11:44;3.80;;;3.50;;
21215;SDS011;10765;50.954;5.322;2022-07-06T04:14:13;5.50;;;3.97;;
21215;SDS011;10765;50.954;5.322;2022-07-06T04:16:40;6.23;;;4.00;;
21215;SDS011;10765;50.954;5.322;2022-07-06T04:19:07;4.83;;;4.00;;
21215;SDS011;10765;50.954;5.322;2022-07-06T04:21:34;3.00;;;2.60;;
21215;SDS011;10765;50.954;5.322;2022-07-06T04:24:01;2.57;;;2.37;;
21215;SDS011;10765;50.954;5.322;2022-07-06T04:26:28;4.00;;;3.27;;
21215;SDS011;10765;50.954;5.322;2022-07-06T04:28:55;3.43;;;3.00;;
21215;SDS011;10765;50.954;5.322;2022-07-06T04:31:23;3.93;;;3.30;;
21215;SDS011;10765;50.954;5.322;2022-07-06T04:33:50;3.50;;;3.20;;
21215;SDS011;10765;50.954;5.322;2022-07-06T04:36:17;3.73;;;3.43;;
21215;SDS011;10765;50.954;5.322;2022-07-06T04:38:44;4.17;;;3.77;;
21215;SDS011;10765;50.954;5.322;2022-07-06T04:41:12;4.13;;;3.17;;
21215;SDS011;10765;50.954;5.322;2022-07-06T04:43:39;4.30;;;3.30;;
21215;SDS011;10765;50.954;5.322;2022-07-06T04:46:06;4.03;;;3.73;;
21215;SDS011;10765;50.954;5.322;2022-07-06T04:48:35;4.03;;;3.13;;
21215;SDS011;10765;50.954;5.322;2022-07-06T04:51:04;4.47;;;3.67;;
21215;SDS011;10765;50.954;5.322;2022-07-06T04:53:31;4.33;;;3.73;;
21215;SDS011;10765;50.954;5.322;2022-07-06T04:55:58;3.67;;;3.23;;
21215;SDS011;10765;50.954;5.322;2022-07-06T04:58:25;4.30;;;3.70;;
21215;SDS011;10765;50.954;5.322;2022-07-06T05:00:52;3.83;;;2.93;;
21215;SDS011;10765;50.954;5.322;2022-07-06T05:03:19;4.40;;;3.17;;
21215;SDS011;10765;50.954;5.322;2022-07-06T05:05:47;4.00;;;3.60;;
21215;SDS011;10765;50.954;5.322;2022-07-06T05:08:14;3.87;;;2.70;;
21215;SDS011;10765;50.954;5.322;2022-07-06T05:10:41;4.00;;;3.60;;
21215;SDS011;10765;50.954;5.322;2022-07-06T05:13:08;4.73;;;3.10;;
21215;SDS011;10765;50.954;5.322;2022-07-06T05:15:35;5.00;;;3.77;;
21215;SDS011;10765;50.954;5.322;2022-07-06T05:18:02;5.13;;;3.50;;
21215;SDS011;10765;50.954;5.322;2022-07-06T05:20:30;4.53;;;3.73;;
21215;SDS011;10765;50.954;5.322;2022-07-06T05:22:58;4.57;;;3.70;;
21215;SDS011;10765;50.954;5.322;2022-07-06T05:25:25;6.30;;;3.80;;
21215;SDS011;10765;50.954;5.322;2022-07-06T05:27:53;7.47;;;4.07;;
21215;SDS011;10765;50.954;5.322;2022-07-06T05:30:20;7.30;;;3.97;;
21215;SDS011;10765;50.954;5.322;2022-07-06T05:32:47;5.20;;;4.60;;
21215;SDS011;10765;50.954;5.322;2022-07-06T05:35:14;6.07;;;5.00;;
21215;SDS011;10765;50.954;5.322;2022-07-06T05:37:41;5.23;;;4.27;;
21215;SDS011;10765;50.954;5.322;2022-07-06T05:40:10;8.57;;;4.67;;
21215;SDS011;10765;50.954;5.322;2022-07-06T05:42:37;8.60;;;5.87;;
21215;SDS011;10765;50.954;5.322;2022-07-06T05:45:05;7.60;;;5.90;;
21215;SDS011;10765;50.954;5.322;2022-07-06T05:47:32;6.57;;;5.97;;
21215;SDS011;10765;50.954;5.322;2022-07-06T05:50:16;7.83;;;5.67;;
21215;SDS011;10765;50.954;5.322;2022-07-06T05:52:44;8.17;;;6.20;;
21215;SDS011;10765;50.954;5.322;2022-07-06T05:55:23;8.00;;;5.50;;
21215;SDS011;10765;50.954;5.322;2022-07-06T05:57:51;6.70;;;5.50;;
21215;SDS011;10765;50.954;5.322;2022-07-06T06:00:19;6.67;;;5.03;;
21215;SDS011;10765;50.954;5.322;2022-07-06T06:02:46;5.40;;;4.90;;
21215;SDS011;10765;50.954;5.322;2022-07-06T06:05:13;7.90;;;5.00;;
21215;SDS011;10765;50.954;5.322;2022-07-06T06:07:41;8.00;;;4.67;;
21215;SDS011;10765;50.954;5.322;2022-07-06T06:10:09;5.70;;;4.40;;
21215;SDS011;10765;50.954;5.322;2022-07-06T06:12:39;6.90;;;4.33;;
21215;SDS011;10765;50.954;5.322;2022-07-06T06:15:07;7.83;;;4.20;;
21215;SDS011;10765;50.954;5.322;2022-07-06T06:17:35;8.37;;;4.20;;
21215;SDS011;10765;50.954;5.322;2022-07-06T06:20:03;6.20;;;4.10;;
21215;SDS011;10765;50.954;5.322;2022-07-06T06:22:43;6.90;;;4.43;;
21215;SDS011;10765;50.954;5.322;2022-07-06T06:25:11;7.17;;;3.63;;
21215;SDS011;10765;50.954;5.322;2022-07-06T06:27:40;7.23;;;3.53;;
21215;SDS011;10765;50.954;5.322;2022-07-06T06:30:07;5.13;;;4.03;;
21215;SDS011;10765;50.954;5.322;2022-07-06T06:32:35;7.90;;;4.20;;
21215;SDS011;10765;50.954;5.322;2022-07-06T06:35:03;4.97;;;3.83;;
21215;SDS011;10765;50.954;5.322;2022-07-06T06:37:30;6.87;;;4.10;;
21215;SDS011;10765;50.954;5.322;2022-07-06T06:39:59;5.50;;;4.47;;
21215;SDS011;10765;50.954;5.322;2022-07-06T06:42:26;5.90;;;4.17;;
21215;SDS011;10765;50.954;5.322;2022-07-06T06:44:54;6.23;;;3.70;;
21215;SDS011;10765;50.954;5.322;2022-07-06T06:47:22;6.63;;;3.47;;
21215;SDS011;10765;50.954;5.322;2022-07-06T06:49:49;6.30;;;3.80;;
21215;SDS011;10765;50.954;5.322;2022-07-06T06:52:16;9.37;;;3.53;;
21215;SDS011;10765;50.954;5.322;2022-07-06T06:54:46;6.90;;;3.03;;
21215;SDS011;10765;50.954;5.322;2022-07-06T06:57:13;5.17;;;3.13;;
21215;SDS011;10765;50.954;5.322;2022-07-06T06:59:40;5.37;;;2.77;;
21215;SDS011;10765;50.954;5.322;2022-07-06T07:02:08;3.90;;;2.77;;
21215;SDS011;10765;50.954;5.322;2022-07-06T07:04:35;8.93;;;2.90;;
21215;SDS011;10765;50.954;5.322;2022-07-06T07:07:03;4.37;;;2.30;;
21215;SDS011;10765;50.954;5.322;2022-07-06T07:09:29;6.27;;;2.90;;
21215;SDS011;10765;50.954;5.322;2022-07-06T07:11:56;8.93;;;2.60;;
21215;SDS011;10765;50.954;5.322;2022-07-06T07:14:23;6.93;;;2.90;;
21215;SDS011;10765;50.954;5.322;2022-07-06T07:16:52;3.53;;;2.43;;
21215;SDS011;10765;50.954;5.322;2022-07-06T07:19:21;5.23;;;2.90;;
21215;SDS011;10765;50.954;5.322;2022-07-06T07:21:48;6.07;;;2.47;;
21215;SDS011;10765;50.954;5.322;2022-07-06T07:24:15;5.93;;;2.00;;
21215;SDS011;10765;50.954;5.322;2022-07-06T07:26:42;4.90;;;2.13;;
21215;SDS011;10765;50.954;5.322;2022-07-06T07:29:09;7.40;;;2.40;;
21215;SDS011;10765;50.954;5.322;2022-07-06T07:31:36;7.00;;;2.43;;
21215;SDS011;10765;50.954;5.322;2022-07-06T07:34:03;4.07;;;2.40;;
21215;SDS011;10765;50.954;5.322;2022-07-06T07:36:31;8.60;;;2.10;;
21215;SDS011;10765;50.954;5.322;2022-07-06T07:38:58;2.13;;;1.40;;
21215;SDS011;10765;50.954;5.322;2022-07-06T07:41:25;4.27;;;2.00;;
21215;SDS011;10765;50.954;5.322;2022-07-06T07:43:52;5.33;;;1.80;;
21215;SDS011;10765;50.954;5.322;2022-07-06T07:46:19;2.70;;;1.70;;
21215;SDS011;10765;50.954;5.322;2022-07-06T07:48:48;2.23;;;1.10;;
21215;SDS011;10765;50.954;5.322;2022-07-06T07:51:15;2.27;;;1.13;;
21215;SDS011;10765;50.954;5.322;2022-07-06T07:53:45;2.70;;;1.30;;
21215;SDS011;10765;50.954;5.322;2022-07-06T07:56:12;4.27;;;1.40;;
21215;SDS011;10765;50.954;5.322;2022-07-06T07:58:38;2.93;;;1.23;;
21215;SDS011;10765;50.954;5.322;2022-07-06T08:01:06;2.57;;;0.90;;
21215;SDS011;10765;50.954;5.322;2022-07-06T08:03:33;2.13;;;0.90;;
21215;SDS011;10765;50.954;5.322;2022-07-06T08:06:00;3.07;;;1.10;;
21215;SDS011;10765;50.954;5.322;2022-07-06T08:08:27;3.23;;;1.00;;
21215;SDS011;10765;50.954;5.322;2022-07-06T08:10:55;2.87;;;1.30;;
21215;SDS011;10765;50.954;5.322;2022-07-06T08:13:22;2.83;;;1.20;;
21215;SDS011;10765;50.954;5.322;2022-07-06T08:15:49;3.70;;;1.07;;
21215;SDS011;10765;50.954;5.322;2022-07-06T08:18:16;2.43;;;0.83;;
21215;SDS011;10765;50.954;5.322;2022-07-06T08:20:43;1.63;;;0.80;;
21215;SDS011;10765;50.954;5.322;2022-07-06T08:23:10;5.87;;;0.93;;
21215;SDS011;10765;50.954;5.322;2022-07-06T08:25:38;1.30;;;0.90;;
21215;SDS011;10765;50.954;5.322;2022-07-06T08:28:06;1.37;;;0.60;;
21215;SDS011;10765;50.954;5.322;2022-07-06T08:30:33;0.97;;;0.70;;
21215;SDS011;10765;50.954;5.322;2022-07-06T08:33:00;2.73;;;1.00;;
21215;SDS011;10765;50.954;5.322;2022-07-06T08:35:27;1.50;;;0.97;;
21215;SDS011;10765;50.954;5.322;2022-07-06T08:37:56;1.90;;;1.10;;
21215;SDS011;10765;50.954;5.322;2022-07-06T08:40:23;1.83;;;0.60;;
21215;SDS011;10765;50.954;5.322;2022-07-06T08:42:51;1.93;;;0.50;;
21215;SDS011;10765;50.954;5.322;2022-07-06T08:45:22;1.87;;;0.57;;
21215;SDS011;10765;50.954;5.322;2022-07-06T08:47:51;1.67;;;0.60;;
21215;SDS011;10765;50.954;5.322;2022-07-06T08:50:21;2.13;;;0.60;;
21215;SDS011;10765;50.954;5.322;2022-07-06T08:52:48;2.87;;;1.10;;
21215;SDS011;10765;50.954;5.322;2022-07-06T08:55:16;2.63;;;0.90;;
21215;SDS011;10765;50.954;5.322;2022-07-06T08:57:44;1.13;;;0.77;;
21215;SDS011;10765;50.954;5.322;2022-07-06T09:00:13;3.23;;;0.83;;
21215;SDS011;10765;50.954;5.322;2022-07-06T09:02:42;1.67;;;0.80;;
21215;SDS011;10765;50.954;5.322;2022-07-06T09:05:10;1.67;;;0.80;;
21215;SDS011;10765;50.954;5.322;2022-07-06T09:07:41;2.77;;;0.80;;
21215;SDS011;10765;50.954;5.322;2022-07-06T09:10:10;2.53;;;1.00;;
21215;SDS011;10765;50.954;5.322;2022-07-06T09:12:37;2.67;;;1.10;;
21215;SDS011;10765;50.954;5.322;2022-07-06T09:15:05;1.83;;;0.80;;
21215;SDS011;10765;50.954;5.322;2022-07-06T09:17:37;2.83;;;1.30;;
21215;SDS011;10765;50.954;5.322;2022-07-06T09:20:08;2.67;;;1.00;;
21215;SDS011;10765;50.954;5.322;2022-07-06T09:22:36;1.97;;;0.70;;
21215;SDS011;10765;50.954;5.322;2022-07-06T09:25:04;2.07;;;0.90;;
21215;SDS011;10765;50.954;5.322;2022-07-06T09:27:37;2.97;;;0.90;;
21215;SDS011;10765;50.954;5.322;2022-07-06T09:30:05;3.50;;;0.90;;
21215;SDS011;10765;50.954;5.322;2022-07-06T09:32:37;2.23;;;1.10;;
21215;SDS011;10765;50.954;5.322;2022-07-06T09:35:06;2.43;;;0.80;;
21215;SDS011;10765;50.954;5.322;2022-07-06T09:37:34;5.50;;;1.13;;
21215;SDS011;10765;50.954;5.322;2022-07-06T09:40:02;2.50;;;1.00;;
21215;SDS011;10765;50.954;5.322;2022-07-06T09:42:43;1.83;;;0.80;;
21215;SDS011;10765;50.954;5.322;2022-07-06T09:45:10;4.37;;;1.00;;
21215;SDS011;10765;50.954;5.322;2022-07-06T09:47:37;4.13;;;1.10;;
21215;SDS011;10765;50.954;5.322;2022-07-06T09:50:08;1.67;;;0.90;;
21215;SDS011;10765;50.954;5.322;2022-07-06T09:52:35;3.13;;;1.20;;
21215;SDS011;10765;50.954;5.322;2022-07-06T09:55:05;3.40;;;1.17;;
21215;SDS011;10765;50.954;5.322;2022-07-06T09:57:51;2.73;;;1.40;;
21215;SDS011;10765;50.954;5.322;2022-07-06T10:00:20;2.27;;;1.30;;
21215;SDS011;10765;50.954;5.322;2022-07-06T10:02:47;2.73;;;1.60;;
21215;SDS011;10765;50.954;5.322;2022-07-06T10:05:17;3.10;;;1.20;;
21215;SDS011;10765;50.954;5.322;2022-07-06T10:07:45;3.63;;;1.20;;
21215;SDS011;10765;50.954;5.322;2022-07-06T10:10:14;1.60;;;1.20;;
21215;SDS011;10765;50.954;5.322;2022-07-06T10:12:42;4.00;;;1.37;;
21215;SDS011;10765;50.954;5.322;2022-07-06T10:15:14;3.67;;;1.60;;
21215;SDS011;10765;50.954;5.322;2022-07-06T10:17:43;3.87;;;1.40;;
21215;SDS011;10765;50.954;5.322;2022-07-06T10:20:12;3.83;;;1.70;;
21215;SDS011;10765;50.954;5.322;2022-07-06T10:22:41;2.30;;;1.30;;
21215;SDS011;10765;50.954;5.322;2022-07-06T10:25:09;2.87;;;1.20;;
21215;SDS011;10765;50.954;5.322;2022-07-06T10:27:37;3.60;;;1.30;;
21215;SDS011;10765;50.954;5.322;2022-07-06T10:30:05;1.57;;;1.00;;
21215;SDS011;10765;50.954;5.322;2022-07-06T10:32:34;1.97;;;1.10;;
21215;SDS011;10765;50.954;5.322;2022-07-06T10:35:02;5.03;;;1.60;;
21215;SDS011;10765;50.954;5.322;2022-07-06T10:37:30;3.83;;;1.40;;
21215;SDS011;10765;50.954;5.322;2022-07-06T10:39:59;2.13;;;1.40;;
21215;SDS011;10765;50.954;5.322;2022-07-06T10:42:44;2.10;;;1.60;;
21215;SDS011;10765;50.954;5.322;2022-07-06T10:45:15;4.17;;;1.97;;
21215;SDS011;10765;50.954;5.322;2022-07-06T10:47:46;3.67;;;1.50;;
21215;SDS011;10765;50.954;5.322;2022-07-06T10:50:13;3.50;;;1.40;;
21215;SDS011;10765;50.954;5.322;2022-07-06T10:52:53;2.50;;;1.30;;
21215;SDS011;10765;50.954;5.322;2022-07-06T10:55:29;2.47;;;1.40;;
21215;SDS011;10765;50.954;5.322;2022-07-06T10:57:57;4.23;;;1.50;;
21215;SDS011;10765;50.954;5.322;2022-07-06T11:00:25;2.60;;;1.70;;
21215;SDS011;10765;50.954;5.322;2022-07-06T11:02:52;4.17;;;1.60;;
21215;SDS011;10765;50.954;5.322;2022-07-06T11:08:09;4.23;;;1.50;;
21215;SDS011;10765;50.954;5.322;2022-07-06T11:10:49;2.83;;;1.30;;
21215;SDS011;10765;50.954;5.322;2022-07-06T11:13:26;3.53;;;1.50;;
21215;SDS011;10765;50.954;5.322;2022-07-06T11:16:00;3.77;;;1.80;;
21215;SDS011;10765;50.954;5.322;2022-07-06T11:18:28;2.80;;;1.27;;
21215;SDS011;10765;50.954;5.322;2022-07-06T11:21:15;3.83;;;1.43;;
21215;SDS011;10765;50.954;5.322;2022-07-06T11:23:45;5.67;;;1.97;;
21215;SDS011;10765;50.954;5.322;2022-07-06T11:26:14;2.13;;;1.43;;
21215;SDS011;10765;50.954;5.322;2022-07-06T11:28:43;2.40;;;1.40;;
21215;SDS011;10765;50.954;5.322;2022-07-06T11:31:12;3.73;;;1.50;;
21215;SDS011;10765;50.954;5.322;2022-07-06T11:33:41;2.03;;;1.17;;
21215;SDS011;10765;50.954;5.322;2022-07-06T11:36:17;3.60;;;1.70;;
21215;SDS011;10765;50.954;5.322;2022-07-06T11:38:46;3.80;;;1.70;;
21215;SDS011;10765;50.954;5.322;2022-07-06T11:41:16;3.83;;;1.53;;
21215;SDS011;10765;50.954;5.322;2022-07-06T11:43:44;3.10;;;2.80;;
21215;SDS011;10765;50.954;5.322;2022-07-06T11:46:22;3.37;;;1.77;;
21215;SDS011;10765;50.954;5.322;2022-07-06T11:48:51;3.50;;;1.60;;
21215;SDS011;10765;50.954;5.322;2022-07-06T11:51:20;3.03;;;1.40;;
21215;SDS011;10765;50.954;5.322;2022-07-06T11:53:47;2.60;;;1.50;;
21215;SDS011;10765;50.954;5.322;2022-07-06T11:56:18;4.80;;;1.70;;
21215;SDS011;10765;50.954;5.322;2022-07-06T11:58:52;3.53;;;1.53;;
21215;SDS011;10765;50.954;5.322;2022-07-06T12:01:21;2.53;;;1.37;;
21215;SDS011;10765;50.954;5.322;2022-07-06T12:03:49;5.43;;;1.80;;
21215;SDS011;10765;50.954;5.322;2022-07-06T12:06:17;4.33;;;1.60;;
21215;SDS011;10765;50.954;5.322;2022-07-06T12:08:47;3.13;;;1.70;;
21215;SDS011;10765;50.954;5.322;2022-07-06T12:11:20;2.77;;;1.60;;
21215;SDS011;10765;50.954;5.322;2022-07-06T12:13:48;4.20;;;1.60;;
21215;SDS011;10765;50.954;5.322;2022-07-06T12:16:16;4.07;;;1.60;;
21215;SDS011;10765;50.954;5.322;2022-07-06T12:18:45;1.87;;;1.43;;
21215;SDS011;10765;50.954;5.322;2022-07-06T12:21:13;3.27;;;1.83;;
21215;SDS011;10765;50.954;5.322;2022-07-06T12:23:43;3.00;;;1.53;;
21215;SDS011;10765;50.954;5.322;2022-07-06T12:26:12;5.60;;;1.40;;
21215;SDS011;10765;50.954;5.322;2022-07-06T12:28:41;2.67;;;1.57;;
21215;SDS011;10765;50.954;5.322;2022-07-06T12:31:10;3.27;;;1.50;;
21215;SDS011;10765;50.954;5.322;2022-07-06T12:33:37;2.90;;;1.50;;
21215;SDS011;10765;50.954;5.322;2022-07-06T12:36:13;3.63;;;1.80;;
21215;SDS011;10765;50.954;5.322;2022-07-06T12:38:45;3.97;;;1.50;;
21215;SDS011;10765;50.954;5.322;2022-07-06T12:41:26;2.13;;;1.17;;
21215;SDS011;10765;50.954;5.322;2022-07-06T12:44:03;2.73;;;1.40;;
21215;SDS011;10765;50.954;5.322;2022-07-06T12:46:36;3.27;;;1.40;;
21215;SDS011;10765;50.954;5.322;2022-07-06T12:49:10;4.43;;;1.60;;
21215;SDS011;10765;50.954;5.322;2022-07-06T12:54:40;6.30;;;1.30;;
21215;SDS011;10765;50.954;5.322;2022-07-06T12:57:09;2.87;;;1.30;;
21215;SDS011;10765;50.954;5.322;2022-07-06T12:59:43;2.07;;;1.40;;
21215;SDS011;10765;50.954;5.322;2022-07-06T13:02:18;2.67;;;1.60;;
21215;SDS011;10765;50.954;5.322;2022-07-06T13:04:54;3.70;;;1.60;;
21215;SDS011;10765;50.954;5.322;2022-07-06T13:07:23;2.20;;;1.40;;
21215;SDS011;10765;50.954;5.322;2022-07-06T13:09:50;4.03;;;1.30;;
21215;SDS011;10765;50.954;5.322;2022-07-06T13:12:17;2.10;;;1.20;;
21215;SDS011;10765;50.954;5.322;2022-07-06T13:14:45;3.50;;;1.37;;
21215;SDS011;10765;50.954;5.322;2022-07-06T13:17:12;3.20;;;1.67;;
21215;SDS011;10765;50.954;5.322;2022-07-06T13:19:40;6.77;;;1.90;;
21215;SDS011;10765;50.954;5.322;2022-07-06T13:22:07;6.27;;;1.50;;
21215;SDS011;10765;50.954;5.322;2022-07-06T13:24:34;4.30;;;1.90;;
21215;SDS011;10765;50.954;5.322;2022-07-06T13:27:01;5.90;;;1.70;;
21215;SDS011;10765;50.954;5.322;2022-07-06T13:29:30;7.00;;;1.93;;
21215;SDS011;10765;50.954;5.322;2022-07-06T13:31:58;4.27;;;1.40;;
21215;SDS011;10765;50.954;5.322;2022-07-06T13:34:25;2.40;;;1.30;;
21215;SDS011;10765;50.954;5.322;2022-07-06T13:36:53;3.33;;;1.73;;
21215;SDS011;10765;50.954;5.322;2022-07-06T13:39:20;3.80;;;1.70;;
21215;SDS011;10765;50.954;5.322;2022-07-06T13:41:52;3.53;;;1.73;;
21215;SDS011;10765;50.954;5.322;2022-07-06T13:44:19;4.17;;;1.90;;
21215;SDS011;10765;50.954;5.322;2022-07-06T13:46:46;3.37;;;1.60;;
21215;SDS011;10765;50.954;5.322;2022-07-06T13:49:15;3.80;;;1.63;;
21215;SDS011;10765;50.954;5.322;2022-07-06T13:51:42;3.37;;;1.70;;
21215;SDS011;10765;50.954;5.322;2022-07-06T13:54:12;4.97;;;1.80;;
21215;SDS011;10765;50.954;5.322;2022-07-06T13:56:39;5.10;;;1.80;;
21215;SDS011;10765;50.954;5.322;2022-07-06T13:59:06;3.63;;;1.60;;
21215;SDS011;10765;50.954;5.322;2022-07-06T14:01:33;4.27;;;2.07;;
21215;SDS011;10765;50.954;5.322;2022-07-06T14:04:00;5.30;;;2.27;;
21215;SDS011;10765;50.954;5.322;2022-07-06T14:06:28;3.67;;;2.30;;
21215;SDS011;10765;50.954;5.322;2022-07-06T14:08:55;3.93;;;1.50;;
21215;SDS011;10765;50.954;5.322;2022-07-06T14:11:22;2.50;;;1.57;;
21215;SDS011;10765;50.954;5.322;2022-07-06T14:13:51;4.23;;;1.70;;
21215;SDS011;10765;50.954;5.322;2022-07-06T14:16:18;7.93;;;1.80;;
21215;SDS011;10765;50.954;5.322;2022-07-06T14:18:45;3.63;;;1.70;;
21215;SDS011;10765;50.954;5.322;2022-07-06T14:21:12;4.77;;;1.70;;
21215;SDS011;10765;50.954;5.322;2022-07-06T14:23:41;4.63;;;1.80;;
21215;SDS011;10765;50.954;5.322;2022-07-06T14:26:08;4.03;;;1.90;;
21215;SDS011;10765;50.954;5.322;2022-07-06T14:28:35;4.20;;;1.57;;
21215;SDS011;10765;50.954;5.322;2022-07-06T14:31:02;3.77;;;1.70;;
21215;SDS011;10765;50.954;5.322;2022-07-06T14:33:29;3.67;;;1.73;;
21215;SDS011;10765;50.954;5.322;2022-07-06T14:35:56;3.00;;;1.90;;
21215;SDS011;10765;50.954;5.322;2022-07-06T14:38:24;4.13;;;1.60;;
21215;SDS011;10765;50.954;5.322;2022-07-06T14:40:54;4.00;;;1.80;;
21215;SDS011;10765;50.954;5.322;2022-07-06T14:43:23;6.23;;;2.20;;
21215;SDS011;10765;50.954;5.322;2022-07-06T14:45:50;3.17;;;1.70;;
21215;SDS011;10765;50.954;5.322;2022-07-06T14:48:18;3.47;;;1.70;;
21215;SDS011;10765;50.954;5.322;2022-07-06T14:50:45;4.70;;;1.77;;
21215;SDS011;10765;50.954;5.322;2022-07-06T14:53:12;4.00;;;1.90;;
21215;SDS011;10765;50.954;5.322;2022-07-06T14:55:39;4.03;;;1.87;;
21215;SDS011;10765;50.954;5.322;2022-07-06T14:58:07;3.80;;;1.97;;
21215;SDS011;10765;50.954;5.322;2022-07-06T15:00:34;3.03;;;1.77;;